Time;durP1;ratioP1;P1;durP2;ratioP2;P2;SDS_P1;SDS_P2;PMS_P1;PMS_P2;Temp;Humidity;BMP_temperature;BMP_pressure;BME280_temperature;BME280_humidity;BME280_pressure;Samples;Min_cycle;Max_cycle;Signal;HPM_P1;HPM_P2
2023/08/23 00:00:34;;;;;;;12.95;8.57;;;;;;;22.42;67.61;99484.41;4947332;28;20029;-87
2023/08/23 00:03:00;;;;;;;10.75;8.95;;;;;;;22.42;67.80;99476.19;4947385;28;20563;-87
2023/08/23 00:05:25;;;;;;;12.52;9.20;;;;;;;22.47;68.21;99488.84;4946966;28;20022;-88
2023/08/23 00:07:54;;;;;;;9.50;8.50;;;;;;;22.37;68.04;99476.41;4962993;28;20030;-87
2023/08/23 00:10:19;;;;;;;13.77;9.32;;;;;;;22.32;68.20;99471.94;4947498;28;20589;-88
2023/08/23 00:12:46;;;;;;;11.30;9.20;;;;;;;22.35;68.32;99481.44;4947128;28;20132;-87
2023/08/23 00:15:12;;;;;;;10.82;8.18;;;;;;;22.33;68.23;99480.97;4947871;28;20049;-87
2023/08/23 00:17:37;;;;;;;14.32;9.25;;;;;;;22.23;68.10;99475.94;4947469;28;20018;-88
2023/08/23 00:20:04;;;;;;;10.65;8.73;;;;;;;22.30;68.16;99482.47;4946566;28;20027;-88
2023/08/23 00:22:29;;;;;;;13.35;9.70;;;;;;;22.31;68.35;99481.34;4946802;28;20057;-88
2023/08/23 00:24:55;;;;;;;9.85;8.82;;;;;;;22.28;68.49;99478.47;4946739;28;20034;-87
2023/08/23 00:27:27;;;;;;;11.30;9.02;;;;;;;22.34;68.75;99482.59;4938251;28;20023;-88
2023/08/23 00:29:52;;;;;;;11.23;9.73;;;;;;;22.32;68.63;99482.13;4926225;28;20036;-88
2023/08/23 00:32:18;;;;;;;15.70;8.80;;;;;;;22.34;68.73;99488.06;4932064;29;20031;-88
2023/08/23 00:34:43;;;;;;;12.82;9.43;;;;;;;22.30;68.47;99471.50;4932775;29;20122;-88
2023/08/23 00:37:09;;;;;;;9.90;8.77;;;;;;;22.35;68.89;99487.75;4943336;28;20026;-88
2023/08/23 00:39:34;;;;;;;10.45;9.27;;;;;;;22.23;68.59;99479.50;4946170;28;20014;-88
2023/08/23 00:42:00;;;;;;;10.70;8.70;;;;;;;22.17;68.54;99481.66;4939087;29;20031;-87
2023/08/23 00:44:25;;;;;;;10.68;8.88;;;;;;;22.12;69.37;99478.34;4934555;28;20536;-88
2023/08/23 00:46:53;;;;;;;9.75;8.55;;;;;;;22.07;69.62;99470.34;4918326;29;20058;-87
2023/08/23 00:49:20;;;;;;;12.15;9.10;;;;;;;22.04;69.37;99480.06;4938157;28;20027;-86
2023/08/23 00:51:45;;;;;;;10.90;9.10;;;;;;;21.98;69.12;99465.78;4939494;28;20113;-88
2023/08/23 00:54:11;;;;;;;9.90;8.63;;;;;;;21.97;69.09;99474.34;4927122;28;20097;-87
2023/08/23 00:56:37;;;;;;;13.05;8.85;;;;;;;21.84;69.17;99457.09;4927596;28;20050;-88
2023/08/23 00:59:04;;;;;;;11.88;9.10;;;;;;;21.84;68.94;99464.53;4926804;28;20019;-87
2023/08/23 01:01:32;;;;;;;11.60;8.63;;;;;;;22.06;68.70;99496.16;4927288;28;20121;-87
2023/08/23 01:03:58;;;;;;;11.25;9.10;;;;;;;22.10;68.75;99497.91;4943997;28;20031;-86
2023/08/23 01:06:28;;;;;;;13.90;9.20;;;;;;;22.10;68.69;99494.31;4927097;28;20030;-88
2023/08/23 01:09:06;;;;;;;13.18;9.10;;;;;;;21.94;68.45;99470.34;4943078;28;20030;-87
2023/08/23 01:11:49;;;;;;;11.20;9.55;;;;;;;22.03;68.50;99481.19;4943385;28;20027;-88
2023/08/23 01:14:38;;;;;;;10.70;8.95;;;;;;;22.02;68.14;99481.53;4927592;28;20026;-88
2023/08/23 01:17:10;;;;;;;11.18;9.18;;;;;;;22.07;68.06;99481.31;4944288;28;20137;-88
2023/08/23 01:19:46;;;;;;;9.48;8.25;;;;;;;22.12;67.86;99481.91;4928219;28;20019;-88
2023/08/23 01:22:19;;;;;;;11.60;9.27;;;;;;;21.97;68.29;99461.41;4926217;28;20453;-87
2023/08/23 01:24:48;;;;;;;11.55;9.25;;;;;;;22.05;68.47;99470.69;4928138;28;20125;-88
2023/08/23 01:27:14;;;;;;;13.35;9.30;;;;;;;22.11;68.37;99480.28;4926563;28;20082;-88
2023/08/23 01:29:39;;;;;;;10.60;9.10;;;;;;;22.07;68.32;99470.34;4927022;28;20018;-88
2023/08/23 01:32:41;;;;;;;10.50;9.35;;;;;;;22.08;68.83;99480.97;4927072;28;20023;-88
2023/08/23 01:35:15;;;;;;;;;;;;;;;22.15;68.70;99485.88;4958885;28;20089;-88
2023/08/23 01:37:42;;;;;;;12.57;9.15;;;;;;;22.05;68.70;99478.91;4942576;28;19894;-88
2023/08/23 01:40:09;;;;;;;10.43;9.13;;;;;;;22.03;69.25;99489.41;4926984;28;20042;-88
2023/08/23 01:42:35;;;;;;;10.63;8.68;;;;;;;22.08;68.54;99482.91;4926932;28;20023;-88
2023/08/23 01:45:02;;;;;;;11.38;8.77;;;;;;;22.16;68.47;99482.00;4927311;28;20031;-88
2023/08/23 01:47:28;;;;;;;10.68;8.95;;;;;;;22.24;67.54;99472.06;4927330;28;20088;-87
2023/08/23 01:49:53;;;;;;;14.00;8.70;;;;;;;22.34;65.45;99475.16;4927620;28;20451;-88
2023/08/23 01:52:19;;;;;;;11.73;8.07;;;;;;;22.15;67.79;99472.19;4945725;28;20519;-87
2023/08/23 01:54:44;;;;;;;13.43;8.35;;;;;;;22.04;68.53;99482.81;4930562;28;20023;-88
2023/08/23 01:57:10;;;;;;;10.07;8.38;;;;;;;21.95;68.75;99473.88;4930489;28;20030;-88
2023/08/23 01:59:37;;;;;;;12.18;8.88;;;;;;;21.80;68.39;99447.94;4931037;28;20113;-88
2023/08/23 02:02:03;;;;;;;13.55;9.30;;;;;;;21.76;68.30;99444.28;4930908;28;20023;-88
2023/08/23 02:04:29;;;;;;;11.52;8.95;;;;;;;22.00;67.53;99473.66;4930234;28;20058;-88
2023/08/23 02:06:54;;;;;;;10.02;8.50;;;;;;;21.96;67.26;99468.06;4930253;28;20049;-88
2023/08/23 02:09:20;;;;;;;14.05;9.23;;;;;;;21.98;67.51;99484.97;4930571;28;20027;-88
2023/08/23 02:11:45;;;;;;;11.55;8.90;;;;;;;21.89;67.13;99472.50;4929823;28;20417;-88
2023/08/23 02:14:11;;;;;;;10.38;9.05;;;;;;;21.86;68.20;99474.00;4929616;28;20027;-88
2023/08/23 02:16:36;;;;;;;10.15;8.82;;;;;;;21.85;67.76;99477.88;4930200;28;20034;-87
2023/08/23 02:19:02;;;;;;;10.65;9.55;;;;;;;21.70;68.65;99470.31;4928488;28;20027;-87
2023/08/23 02:21:29;;;;;;;11.80;10.32;;;;;;;21.60;68.02;99463.31;4923127;29;20019;-88
2023/08/23 02:23:54;;;;;;;12.23;10.10;;;;;;;21.62;69.09;99465.75;4923005;28;20525;-88
2023/08/23 02:26:20;;;;;;;12.48;10.23;;;;;;;21.58;69.53;99468.34;4941248;28;20029;-88
2023/08/23 02:28:46;;;;;;;12.60;8.90;;;;;;;21.59;68.90;99470.75;4929844;28;20110;-86
2023/08/23 02:31:16;;;;;;;10.30;9.25;;;;;;;21.52;69.85;99458.75;4929348;28;20023;-88
2023/08/23 02:33:41;;;;;;;16.02;9.40;;;;;;;21.59;69.54;99475.44;4929286;28;20114;-88
2023/08/23 02:36:07;;;;;;;14.15;9.52;;;;;;;21.53;68.95;99461.16;4929920;28;20505;-86
2023/08/23 02:38:32;;;;;;;13.02;9.07;;;;;;;21.36;69.23;99445.69;4929475;28;20027;-88
2023/08/23 02:40:58;;;;;;;13.15;9.40;;;;;;;21.36;69.81;99461.31;4929624;28;20026;-87
2023/08/23 02:43:24;;;;;;;12.95;9.77;;;;;;;21.33;70.25;99464.72;4941720;28;20019;-87
2023/08/23 02:45:52;;;;;;;12.75;9.60;;;;;;;21.26;70.62;99465.28;4923051;28;20382;-88
2023/08/23 02:48:18;;;;;;;12.95;10.75;;;;;;;21.04;70.93;99447.28;4953951;29;20029;-88
2023/08/23 02:50:46;;;;;;;13.85;11.23;;;;;;;21.01;71.45;99449.91;4925907;28;20401;-88
2023/08/23 02:53:12;;;;;;;15.38;10.63;;;;;;;21.09;71.78;99469.00;4945467;28;20034;-88
2023/08/23 02:55:37;;;;;;;16.40;11.02;;;;;;;21.04;72.14;99471.91;4945117;28;20027;-88
2023/08/23 02:58:03;;;;;;;16.17;10.68;;;;;;;20.91;72.29;99467.53;4944715;28;20023;-88
2023/08/23 03:00:29;;;;;;;13.63;10.68;;;;;;;20.91;72.51;99464.81;4944693;28;20113;-88
2023/08/23 03:02:55;;;;;;;14.52;10.85;;;;;;;20.86;72.49;99465.03;4945314;28;20046;-88
2023/08/23 03:05:20;;;;;;;14.75;10.70;;;;;;;20.87;72.67;99466.63;4944790;28;20019;-88
2023/08/23 03:07:46;;;;;;;13.85;10.57;;;;;;;20.85;72.74;99474.34;4945032;28;20030;-87
2023/08/23 03:10:14;;;;;;;16.70;11.13;;;;;;;20.71;73.19;99450.81;4944532;28;20125;-88
2023/08/23 03:12:40;;;;;;;12.20;10.27;;;;;;;20.85;73.32;99477.09;4944632;28;20061;-87
2023/08/23 03:15:06;;;;;;;21.75;11.55;;;;;;;20.77;72.75;99468.63;4944363;28;20035;-88
2023/08/23 03:17:32;;;;;;;13.20;10.73;;;;;;;20.75;73.33;99476.38;4945011;28;20027;-88
2023/08/23 03:19:58;;;;;;;11.27;10.07;;;;;;;20.77;73.02;99492.44;4944855;28;20046;-88
2023/08/23 03:22:24;;;;;;;21.33;11.07;;;;;;;20.75;73.09;99476.38;4947631;28;20430;-88
2023/08/23 03:24:49;;;;;;;18.23;10.75;;;;;;;20.72;73.04;99476.22;4948083;28;20038;-88
2023/08/23 03:27:17;;;;;;;18.85;10.90;;;;;;;20.64;73.28;99483.38;4947963;28;20049;-87
2023/08/23 03:29:46;;;;;;;14.80;10.40;;;;;;;20.59;73.26;99478.91;4962915;28;20038;-88
2023/08/23 03:32:14;;;;;;;16.02;10.00;;;;;;;20.52;73.31;99478.59;4963506;28;20412;-88
2023/08/23 03:34:39;;;;;;;19.25;10.55;;;;;;;20.64;73.13;99494.31;4948192;28;20038;-87
2023/08/23 03:37:05;;;;;;;15.82;10.85;;;;;;;20.49;73.64;99473.78;4947872;28;20039;-87
2023/08/23 03:39:31;;;;;;;16.00;10.98;;;;;;;20.44;73.85;99470.44;4947328;28;20033;-88
2023/08/23 03:41:56;;;;;;;12.80;10.88;;;;;;;20.50;73.87;99482.78;4947313;28;20492;-88
2023/08/23 03:44:27;;;;;;;17.38;10.68;;;;;;;20.49;73.90;99479.25;4946846;28;20042;-87
2023/08/23 03:46:52;;;;;;;18.02;11.27;;;;;;;20.44;73.93;99481.38;4947395;28;20019;-86
2023/08/23 03:49:17;;;;;;;13.85;11.02;;;;;;;20.39;74.05;99472.22;4947409;28;20033;-88
2023/08/23 03:51:43;;;;;;;13.45;10.30;;;;;;;20.42;74.34;99473.53;4947348;28;20116;-88
2023/08/23 03:54:08;;;;;;;16.55;10.43;;;;;;;20.37;74.82;99481.91;4939426;29;20039;-88
2023/08/23 03:56:37;;;;;;;13.38;11.10;;;;;;;20.38;74.28;99478.06;4957902;28;20026;-88
2023/08/23 03:59:03;;;;;;;18.40;10.90;;;;;;;20.36;74.72;99483.06;4923047;28;20421;-87
2023/08/23 04:01:28;;;;;;;19.52;11.20;;;;;;;20.38;74.52;99483.53;4930906;28;20037;-87
2023/08/23 04:03:54;;;;;;;17.05;10.60;;;;;;;20.32;74.70;99477.44;4924033;28;20038;-87
2023/08/23 04:06:19;;;;;;;17.98;11.20;;;;;;;20.38;74.20;99475.31;4923044;28;20023;-88
2023/08/23 04:08:53;;;;;;;16.35;10.88;;;;;;;20.45;73.62;99483.00;4923572;28;20031;-88
2023/08/23 04:11:25;;;;;;;18.10;11.13;;;;;;;20.37;73.41;99477.22;4932654;28;20098;-88
2023/08/23 04:13:51;;;;;;;14.85;10.85;;;;;;;20.31;73.57;99472.28;4939526;28;20034;-89
2023/08/23 04:16:16;;;;;;;14.43;11.10;;;;;;;20.47;73.48;99491.66;4916642;29;20038;-88
2023/08/23 04:18:42;;;;;;;15.85;11.63;;;;;;;20.50;73.92;99491.00;4946552;28;20374;-88
2023/08/23 04:21:13;;;;;;;17.98;11.15;;;;;;;20.57;73.07;99492.06;4926984;28;20034;-87
2023/08/23 04:23:39;;;;;;;;;;;;;;;20.86;72.13;99501.41;4925603;29;20055;-87
2023/08/23 04:26:04;;;;;;;16.48;10.73;;;;;;;20.95;71.37;99493.91;4930434;28;20430;-88
2023/08/23 04:28:30;;;;;;;14.40;10.27;;;;;;;21.08;70.66;99478.31;4920841;28;20030;-86
2023/08/23 04:31:02;;;;;;;16.30;11.70;;;;;;;21.25;69.91;99493.81;4917237;29;20042;-87
2023/08/23 04:33:27;;;;;;;;;;;;;;;21.41;70.00;99502.19;4925348;28;20089;-87
2023/08/23 04:35:52;;;;;;;12.07;10.15;;;;;;;21.43;69.02;99488.19;4922122;28;19898;-87
2023/08/23 04:38:18;;;;;;;18.63;10.70;;;;;;;21.40;69.96;99495.91;4916256;28;20482;-87
2023/08/23 04:40:43;;;;;;;14.85;10.15;;;;;;;21.42;70.33;99498.34;4907771;28;20059;-88
2023/08/23 04:43:33;;;;;;;15.65;10.05;;;;;;;21.08;70.47;99474.78;4933665;29;20031;-96
2023/08/23 04:46:13;;;;;;;18.20;10.88;;;;;;;21.03;71.52;99480.50;4958148;29;20035;-96
2023/08/23 04:48:50;;;;;;;14.63;9.60;;;;;;;21.04;70.88;99491.09;4957112;29;20071;-96
2023/08/23 04:53:54;;;;;;;14.30;10.35;;;;;;;21.00;70.87;99479.22;5056965;23;20494;-96
2023/08/23 04:56:19;;;;;;;27.17;11.68;;;;;;;21.12;70.19;99498.44;4934239;29;20035;-94
2023/08/23 04:58:45;;;;;;;13.00;10.15;;;;;;;21.14;70.05;99492.63;4918893;29;20431;-96
2023/08/23 05:01:14;;;;;;;17.52;10.55;;;;;;;21.27;70.05;99497.03;4913566;29;20011;-89
2023/08/23 05:03:40;;;;;;;19.25;10.55;;;;;;;21.42;69.03;99506.56;4921946;29;20082;-89
2023/08/23 05:06:05;;;;;;;20.63;10.70;;;;;;;21.46;69.15;99493.81;4917924;29;20043;-89
2023/08/23 05:08:38;;;;;;;18.23;11.15;;;;;;;21.72;68.55;99490.75;4920562;29;20095;-92
2023/08/23 05:11:04;;;;;;;14.32;10.57;;;;;;;21.84;68.03;99500.94;4915416;29;20042;-91
2023/08/23 05:13:30;;;;;;;21.95;11.65;;;;;;;22.14;67.39;99508.97;4901422;29;20461;-90
2023/08/23 05:15:58;;;;;;;26.05;16.10;;;;;;;22.32;66.30;99495.84;4921268;29;20045;-92
2023/08/23 05:18:25;;;;;;;64.57;42.75;;;;;;;22.60;65.36;99515.16;4872985;29;20055;-90
2023/08/23 05:24:02;;;;;;;24.40;13.52;;;;;;;23.03;63.18;99501.91;4856264;29;20041;-94
2023/08/23 05:26:33;;;;;;;20.98;13.45;;;;;;;22.97;63.03;99484.84;4869850;29;20500;-92
2023/08/23 05:29:01;;;;;;;15.48;12.75;;;;;;;23.23;61.70;99487.16;4847885;29;20609;-91
2023/08/23 05:31:28;;;;;;;22.17;15.23;;;;;;;23.52;62.09;99509.94;4873786;29;20036;-89
2023/08/23 05:33:56;;;;;;;17.50;12.48;;;;;;;23.54;61.83;99488.38;4875030;29;20068;-89
2023/08/23 05:36:31;;;;;;;14.20;9.05;;;;;;;23.70;59.29;99499.38;4869764;29;20032;-91
2023/08/23 05:39:03;;;;;;;25.15;18.17;;;;;;;23.80;58.64;99505.22;4882866;29;20130;-92
2023/08/23 05:41:44;;;;;;;12.68;9.10;;;;;;;23.86;57.75;99500.22;4876574;29;20037;-93
2023/08/23 05:44:25;;;;;;;24.67;14.32;;;;;;;23.95;58.92;99502.81;4875295;29;20040;-93
2023/08/23 05:46:51;;;;;;;20.50;13.05;;;;;;;24.15;57.99;99509.19;4847901;29;20657;-92
2023/08/23 05:49:19;;;;;;;12.88;8.50;;;;;;;24.07;57.76;99488.94;4889563;29;20048;-93
2023/08/23 05:51:53;;;;;;;13.45;8.73;;;;;;;24.20;58.39;99498.72;4902035;29;20039;-90
2023/08/23 05:54:31;;;;;;;17.80;8.75;;;;;;;24.36;57.39;99517.97;4915177;29;20094;-90
2023/08/23 05:58:05;;;;;;;;;;;;;;;;;;;;;
2023/08/23 06:01:13;;;;;;;13.13;8.48;;;;;;;24.41;58.27;99486.59;4846982;29;20113;-93
2023/08/23 06:03:44;;;;;;;15.52;9.05;;;;;;;24.52;57.52;99475.84;4830444;29;20038;-92
2023/08/23 06:06:37;;;;;;;16.08;9.68;;;;;;;24.86;58.29;99509.22;4845588;29;20041;-94
2023/08/23 06:09:05;;;;;;;21.23;9.25;;;;;;;24.81;57.46;99489.06;4898407;29;20047;-94
2023/08/23 06:11:44;;;;;;;25.85;15.50;;;;;;;25.04;56.95;99504.88;4894341;29;20060;-96
2023/08/23 06:14:48;;;;;;;25.10;17.40;;;;;;;25.09;55.77;99481.75;4901756;29;20127;-95
2023/08/23 06:17:16;;;;;;;13.60;10.77;;;;;;;25.26;55.22;99481.34;4858919;29;20486;-96
2023/08/23 06:19:43;;;;;;;18.98;12.45;;;;;;;25.51;55.14;99514.09;4847463;29;20041;-95
2023/08/23 06:22:22;;;;;;;16.00;10.45;;;;;;;25.31;55.26;99478.28;4862445;29;20528;-95
2023/08/23 06:25:07;;;;;;;28.02;22.50;;;;;;;25.64;55.03;99500.94;4861674;29;20053;-95
2023/08/23 06:30:08;;;;;;;45.63;29.48;;;;;;;25.96;54.41;99513.34;5019727;23;20039;-95
2023/08/23 06:33:05;;;;;;;23.65;12.90;;;;;;;25.93;53.65;99493.97;4949692;28;20085;-96
2023/08/23 06:36:26;;;;;;;16.88;11.88;;;;;;;26.21;54.19;99496.41;4873040;29;20040;-96
2023/08/23 06:51:20;;;;;;;19.90;12.13;;;;;;;26.88;49.40;99504.06;4989634;28;20121;-96
2023/08/23 06:54:23;;;;;;;;;;;;;;;;;;;;;
2023/08/23 06:56:52;;;;;;;16.70;9.23;;;;;;;27.13;49.30;99506.34;4983011;28;20061;-96
2023/08/23 07:07:48;;;;;;;25.73;10.10;;;;;;;27.34;48.38;99495.53;4976519;28;20040;-96
2023/08/23 07:10:24;;;;;;;14.48;10.43;;;;;;;27.51;48.14;99488.59;4955401;29;20067;-96
2023/08/23 07:20:55;;;;;;;22.75;10.38;;;;;;;27.95;46.75;99485.09;4965220;28;20051;-90
2023/08/23 07:23:26;;;;;;;16.95;10.23;;;;;;;28.12;46.97;99497.47;4922359;29;20488;-87
2023/08/23 07:25:57;;;;;;;16.38;11.63;;;;;;;28.17;45.85;99488.00;4924966;29;20115;-89
2023/08/23 07:28:53;;;;;;;16.63;10.25;;;;;;;28.23;45.57;99480.94;4913958;29;20043;-90
2023/08/23 07:31:25;;;;;;;17.85;11.63;;;;;;;28.47;45.17;99473.16;4900932;29;20035;-93
2023/08/23 07:36:28;;;;;;;14.43;7.65;;;;;;;28.63;43.25;99478.41;5136781;23;20025;-96
2023/08/23 07:39:30;;;;;;;9.80;7.40;;;;;;;28.96;43.34;99496.78;5140719;23;20050;-95
2023/08/23 07:41:57;;;;;;;12.27;8.07;;;;;;;28.90;44.42;99465.84;4957958;28;20026;-95
2023/08/23 07:44:28;;;;;;;14.27;7.93;;;;;;;29.01;44.24;99463.94;4991082;28;20122;-96
2023/08/23 07:47:02;;;;;;;20.70;12.90;;;;;;;29.20;44.85;99471.16;4943926;28;20042;-95
2023/08/23 07:49:38;;;;;;;10.90;7.57;;;;;;;29.40;44.47;99481.88;4924021;29;20043;-94
2023/08/23 07:55:10;;;;;;;13.38;7.93;;;;;;;29.63;42.80;99459.31;4871412;29;20045;-95
2023/08/23 07:59:01;;;;;;;;;;;;;;;;;;;;;
2023/08/23 08:01:57;;;;;;;11.63;7.07;;;;;;;30.04;42.01;99477.59;4801753;29;20554;-95
2023/08/23 08:04:29;;;;;;;8.57;6.63;;;;;;;30.14;42.02;99476.78;4790370;29;20600;-96
2023/08/23 08:07:01;;;;;;;11.10;7.53;;;;;;;30.30;42.28;99471.63;4857597;29;20026;-96
2023/08/23 08:10:28;;;;;;;16.70;11.10;;;;;;;30.33;41.39;99447.81;4839921;29;20079;-95
2023/08/23 08:12:54;;;;;;;10.88;8.38;;;;;;;30.72;40.83;99460.78;4819530;29;20050;-96
2023/08/23 08:15:31;;;;;;;15.35;10.02;;;;;;;30.76;40.28;99445.69;4839802;29;20038;-96
2023/08/23 08:18:02;;;;;;;7.32;5.03;;;;;;;31.00;37.68;99469.03;4841611;29;20035;-96
2023/08/23 08:35:01;;;;;;;7.63;4.47;;;;;;;31.38;36.09;99435.03;5012404;23;20054;-96
2023/08/23 08:38:06;;;;;;;9.35;4.78;;;;;;;31.39;36.14;99439.38;4940324;28;20035;-96
2023/08/23 08:40:51;;;;;;;7.60;5.60;;;;;;;31.75;36.11;99465.00;4904291;29;20044;-96
2023/08/23 08:57:48;;;;;;;8.48;4.88;;;;;;;32.29;33.82;99442.25;5724477;23;20059;-95
2023/08/23 09:00:38;;;;;;;7.15;4.70;;;;;;;32.38;34.46;99442.53;4921291;29;20051;-94
2023/08/23 09:03:04;;;;;;;9.32;4.28;;;;;;;32.40;32.73;99430.97;5086074;23;20513;-96
2023/08/23 09:05:29;;;;;;;6.65;4.10;;;;;;;32.26;32.34;99443.06;4956996;28;20071;-93
2023/08/23 09:15:40;;;;;;;8.10;4.88;;;;;;;32.78;30.74;99440.09;4956152;29;20242;-96
2023/08/23 09:18:37;;;;;;;;;;;;;;;;;;;;;
2023/08/23 09:21:27;;;;;;;8.20;4.20;;;;;;;32.89;30.40;99428.78;4931524;28;20050;-96
2023/08/23 09:34:30;;;;;;;6.60;5.03;;;;;;;32.77;29.08;99396.69;5070362;23;20055;-96
2023/08/23 09:37:11;;;;;;;9.20;4.90;;;;;;;32.72;29.04;99379.63;5109808;23;20352;-96
2023/08/23 09:48:42;;;;;;;5.97;4.13;;;;;;;33.22;26.90;99393.69;4969963;28;20048;-96
2023/08/23 09:54:05;;;;;;;5.28;3.88;;;;;;;33.27;27.00;99386.00;5171959;23;20041;-96
2023/08/23 09:59:12;;;;;;;4.47;3.75;;;;;;;33.24;27.87;99370.13;5393404;23;20054;-96
2023/08/23 10:04:16;;;;;;;5.40;4.20;;;;;;;33.24;26.99;99362.53;5023624;23;20125;-95
2023/08/23 10:06:54;;;;;;;4.57;3.95;;;;;;;33.34;26.61;99369.94;4940075;28;20042;-95
2023/08/23 10:09:35;;;;;;;5.53;3.83;;;;;;;33.37;26.84;99354.34;4991597;28;20027;-96
2023/08/23 10:12:03;;;;;;;5.03;3.88;;;;;;;33.42;26.56;99351.09;4913238;28;20047;-95
2023/08/23 10:14:29;;;;;;;6.78;4.10;;;;;;;33.51;27.01;99345.72;4951599;28;20027;-90
2023/08/23 10:16:55;;;;;;;9.18;4.03;;;;;;;33.57;26.47;99349.63;4949550;28;20035;-89
2023/08/23 10:19:20;;;;;;;7.65;5.03;;;;;;;33.66;26.58;99359.47;4928482;28;20512;-89
2023/08/23 10:21:46;;;;;;;9.93;5.60;;;;;;;33.44;27.23;99331.91;4927349;28;20109;-90
2023/08/23 10:24:12;;;;;;;10.25;5.78;;;;;;;33.66;27.30;99335.16;4933713;28;20037;-89
2023/08/23 10:26:53;;;;;;;8.27;6.03;;;;;;;33.80;26.27;99343.25;4947454;28;20480;-91
2023/08/23 10:29:28;;;;;;;7.22;5.05;;;;;;;33.99;26.85;99350.09;4925877;29;20035;-90
2023/08/23 10:31:54;;;;;;;6.82;4.03;;;;;;;33.96;25.75;99342.56;4935035;28;20401;-96
2023/08/23 10:34:40;;;;;;;4.40;3.88;;;;;;;34.19;26.86;99354.91;4944780;28;20031;-95
2023/08/23 10:37:39;;;;;;;5.07;3.83;;;;;;;34.10;25.55;99327.53;4949170;29;20070;-96
2023/08/23 10:40:40;;;;;;;6.70;4.05;;;;;;;34.12;25.46;99327.09;4886109;29;20047;-96
2023/08/23 11:47:56;;;;;;;6.07;3.50;;;;;;;34.88;24.26;99250.75;5117355;23;20043;-96
2023/08/23 11:50:22;;;;;;;5.43;3.70;;;;;;;34.96;23.81;99252.91;4968687;28;20047;-95
2023/08/23 11:53:20;;;;;;;5.35;3.65;;;;;;;35.00;23.74;99273.22;4962555;28;20091;-96
2023/08/23 11:59:57;;;;;;;8.60;3.63;;;;;;;34.92;22.81;99229.84;4932973;28;20107;-96
2023/08/23 12:02:33;;;;;;;4.53;3.50;;;;;;;35.12;23.40;99257.72;5147904;23;20053;-95
2023/08/23 12:05:02;;;;;;;4.82;3.45;;;;;;;34.96;23.36;99229.75;4973678;28;20026;-95
2023/08/23 12:07:31;;;;;;;5.38;3.40;;;;;;;35.08;24.17;99248.63;4958728;28;20053;-96
2023/08/23 12:10:06;;;;;;;4.13;3.63;;;;;;;34.94;24.10;99235.00;4942885;28;20035;-96
2023/08/23 12:13:15;;;;;;;;;;;;;;;;;;;;;
2023/08/23 12:26:02;;;;;;;7.18;3.58;;;;;;;35.23;23.47;99212.69;4990212;28;20046;-96
2023/08/23 12:28:42;;;;;;;5.20;3.75;;;;;;;35.42;23.51;99224.97;4976079;28;20035;-96
2023/08/23 12:31:08;;;;;;;7.45;3.70;;;;;;;35.39;23.34;99223.06;4955210;28;20046;-86
2023/08/23 12:33:34;;;;;;;5.25;3.70;;;;;;;35.41;23.39;99212.22;4938176;28;20027;-89
2023/08/23 12:36:00;;;;;;;4.00;3.53;;;;;;;35.50;23.32;99203.94;4939639;28;20037;-89
2023/08/23 12:38:25;;;;;;;7.05;3.70;;;;;;;35.29;23.54;99199.72;4927109;28;20095;-89
2023/08/23 12:41:00;;;;;;;4.45;3.33;;;;;;;35.47;23.50;99207.66;4943986;28;20065;-89
2023/08/23 12:43:36;;;;;;;;;;;;;;;;;;;;;
2023/08/23 12:46:08;;;;;;;4.43;3.35;;;;;;;35.43;22.51;99198.56;4939673;28;20053;-85
2023/08/23 12:48:34;;;;;;;5.50;3.47;;;;;;;35.35;22.69;99195.16;4950343;28;20030;-89
2023/08/23 12:51:00;;;;;;;4.95;3.33;;;;;;;35.28;23.06;99194.56;4927052;28;20561;-87
2023/08/23 12:53:25;;;;;;;6.18;4.10;;;;;;;35.49;23.64;99204.38;4940398;28;20046;-89
2023/08/23 12:56:14;;;;;;;8.25;4.38;;;;;;;35.64;23.47;99204.78;4942422;28;20035;-90
2023/08/23 12:58:40;;;;;;;5.70;4.38;;;;;;;35.66;23.22;99200.34;4910590;28;20030;-91
2023/08/23 13:01:05;;;;;;;4.85;3.80;;;;;;;35.72;23.30;99192.97;4917967;28;20085;-91
2023/08/23 13:03:33;;;;;;;4.85;3.65;;;;;;;35.73;23.13;99194.50;4918350;28;20031;-89
2023/08/23 13:06:02;;;;;;;6.30;3.72;;;;;;;35.92;23.73;99184.34;4916062;28;20074;-90
2023/08/23 13:08:30;;;;;;;6.15;3.90;;;;;;;35.97;23.72;99169.78;4919590;28;20034;-89
2023/08/23 13:11:19;;;;;;;5.65;3.80;;;;;;;36.16;23.13;99175.66;4947768;28;20039;-90
2023/08/23 13:13:50;;;;;;;5.88;3.75;;;;;;;36.25;23.62;99172.19;4933409;29;20063;-92
2023/08/23 13:16:18;;;;;;;6.05;4.05;;;;;;;36.41;23.33;99180.47;4917862;29;20019;-88
2023/08/23 13:18:45;;;;;;;6.68;3.60;;;;;;;36.27;23.17;99189.34;4929087;29;20027;-88
2023/08/23 13:21:11;;;;;;;7.95;3.80;;;;;;;36.24;23.65;99182.63;4912426;29;20094;-89
2023/08/23 13:23:39;;;;;;;5.00;3.42;;;;;;;36.27;22.88;99190.13;4913616;29;20027;-89
2023/08/23 13:26:14;;;;;;;5.72;3.55;;;;;;;36.21;22.72;99183.50;4912863;29;20039;-89
2023/08/23 13:28:39;;;;;;;4.28;3.45;;;;;;;36.26;23.13;99173.75;4917518;28;20486;-89
2023/08/23 13:31:08;;;;;;;5.18;4.18;;;;;;;36.35;22.85;99185.06;4944180;28;20094;-89
2023/08/23 13:33:34;;;;;;;5.28;3.72;;;;;;;36.33;23.42;99170.72;4925627;28;20031;-90
2023/08/23 13:36:03;;;;;;;6.38;3.63;;;;;;;36.11;23.63;99176.19;4956956;28;20030;-89
2023/08/23 13:38:29;;;;;;;5.80;3.55;;;;;;;36.20;23.41;99184.75;4944948;28;20121;-89
2023/08/23 13:40:54;;;;;;;7.20;3.70;;;;;;;36.04;23.42;99176.41;4947892;28;20035;-88
2023/08/23 13:43:20;;;;;;;6.70;4.13;;;;;;;35.85;23.50;99189.41;4943642;28;20046;-87
2023/08/23 13:45:48;;;;;;;5.20;3.63;;;;;;;35.88;23.26;99175.25;4946586;28;20116;-88
2023/08/23 13:48:13;;;;;;;5.43;3.42;;;;;;;35.90;23.79;99170.00;4931354;28;20031;-89
2023/08/23 13:50:39;;;;;;;8.60;4.28;;;;;;;36.06;23.54;99171.13;4933810;28;20090;-89
2023/08/23 13:53:13;;;;;;;5.32;4.10;;;;;;;36.20;23.65;99184.75;4935892;28;20035;-89
2023/08/23 13:55:39;;;;;;;4.22;3.45;;;;;;;36.27;23.06;99172.50;4932190;28;20548;-90
2023/08/23 13:58:06;;;;;;;6.70;4.13;;;;;;;36.37;23.36;99183.38;4954666;28;20027;-87
2023/08/23 14:00:38;;;;;;;5.28;4.20;;;;;;;36.54;22.70;99180.44;4939599;29;20053;-90
2023/08/23 14:03:04;;;;;;;3.95;3.30;;;;;;;36.53;21.93;99165.66;4913991;29;20061;-90
2023/08/23 14:05:30;;;;;;;7.63;3.92;;;;;;;36.68;22.48;99168.78;4929431;29;20031;-90
2023/08/23 14:08:05;;;;;;;4.63;3.90;;;;;;;36.91;22.23;99178.06;4930714;29;20117;-90
2023/08/23 14:10:31;;;;;;;5.50;3.70;;;;;;;37.13;21.45;99172.50;4916270;29;20039;-88
2023/08/23 14:13:02;;;;;;;5.32;4.30;;;;;;;37.33;21.10;99184.19;4913049;29;20110;-90
2023/08/23 14:15:28;;;;;;;;;;;;;;;37.51;20.90;99188.41;4932970;28;20027;-89
2023/08/23 14:17:59;;;;;;;4.95;3.55;;;;;;;37.69;21.01;99168.88;4940565;28;19921;-89
2023/08/23 14:20:51;;;;;;;6.18;3.45;;;;;;;37.57;21.25;99158.47;4925290;28;20027;-89
2023/08/23 14:23:37;;;;;;;4.80;3.50;;;;;;;37.86;21.67;99188.34;4940708;29;20058;-90
2023/08/23 14:26:03;;;;;;;3.63;2.90;;;;;;;37.93;20.47;99162.75;4928115;29;20058;-89
2023/08/23 14:28:54;;;;;;;5.18;3.70;;;;;;;38.21;21.19;99186.97;4909726;28;20417;-89
2023/08/23 14:31:19;;;;;;;7.85;3.58;;;;;;;38.19;21.50;99169.00;4893892;29;20048;-88
2023/08/23 14:33:45;;;;;;;5.47;3.30;;;;;;;38.21;21.60;99175.72;4882195;29;20426;-89
2023/08/23 14:36:14;;;;;;;4.32;3.28;;;;;;;38.24;21.85;99170.41;4880238;29;20057;-89
2023/08/23 14:38:42;;;;;;;4.63;3.60;;;;;;;37.93;22.17;99174.75;4875199;29;20032;-89
2023/08/23 14:41:08;;;;;;;5.88;3.30;;;;;;;37.53;21.99;99169.84;4886501;29;20044;-89
2023/08/23 14:43:46;;;;;;;7.57;3.75;;;;;;;37.04;22.29;99178.00;4869696;29;20096;-88
2023/08/23 14:46:16;;;;;;;8.25;3.80;;;;;;;36.80;23.18;99178.41;4854450;29;20044;-87
2023/08/23 14:48:42;;;;;;;;;;;;;;;36.40;23.61;99184.50;4855105;29;20713;-88
2023/08/23 14:51:07;;;;;;;9.02;3.88;;;;;;;36.15;23.19;99171.28;4870060;29;19912;-89
2023/08/23 14:53:58;;;;;;;12.35;8.25;;;;;;;36.03;23.92;99184.03;4854223;29;20598;-88
2023/08/23 14:56:24;;;;;;;;;;;;;;;35.81;23.61;99179.06;4871007;29;20148;-88
2023/08/23 14:58:51;;;;;;;5.38;3.80;;;;;;;35.65;23.57;99175.56;4871092;29;20402;-89
2023/08/23 15:01:17;;;;;;;4.47;3.38;;;;;;;35.39;23.97;99162.25;4868833;29;20039;-89